Terminal Aerodrome Forecast
Issued by NWS Lake Charles, LA

Home | Current Version | Previous Version | Text Only | Print | Product List | Glossary On
Versions: 1 2 3 4 5 6 7 8 9 10 11 12 13 14 15 16 17 18 19
000
FTUS44 KLCH 271519 AAC
TAFLCH
TAF AMD
KLCH 271519Z 2715/2812 17008KT P6SM VCSH SCT025 SCT050
      TEMPO 2715/2718 3SM SHRA BKN025 OVC050
     FM271800 16012G20KT P6SM VCTS SCT025 BKN035CB
      TEMPO 2718/2722 3SM BR BKN025 OVC035
     FM280000 17010KT P6SM BKN015
     FM280400 16010KT 5SM BR OVC004=

USA.gov is the U.S. government's official web portal to all federal, state and local government web resources and services.